sensor_id;sensor_type;location;lat;lon;timestamp;P1;durP1;ratioP1;P2;durP2;ratioP2
51080;SDS011;37130;55.670;37.596;2022-07-23T00:00:49;0.00;;;0.00;;
51080;SDS011;37130;55.670;37.596;2022-07-23T00:03:17;0.00;;;0.00;;
51080;SDS011;37130;55.670;37.596;2022-07-23T00:05:44;0.00;;;0.00;;
51080;SDS011;37130;55.670;37.596;2022-07-23T00:08:12;0.00;;;0.00;;
51080;SDS011;37130;55.670;37.596;2022-07-23T00:10:40;0.00;;;0.00;;
51080;SDS011;37130;55.670;37.596;2022-07-23T00:13:08;0.00;;;0.00;;
51080;SDS011;37130;55.670;37.596;2022-07-23T00:15:37;0.00;;;0.00;;
51080;SDS011;37130;55.670;37.596;2022-07-23T00:18:05;0.00;;;0.00;;
51080;SDS011;37130;55.670;37.596;2022-07-23T00:20:32;0.00;;;0.00;;
51080;SDS011;37130;55.670;37.596;2022-07-23T00:23:00;0.00;;;0.00;;
51080;SDS011;37130;55.670;37.596;2022-07-23T00:25:27;0.00;;;0.00;;
51080;SDS011;37130;55.670;37.596;2022-07-23T00:27:57;0.00;;;0.00;;
51080;SDS011;37130;55.670;37.596;2022-07-23T00:30:28;0.00;;;0.00;;
51080;SDS011;37130;55.670;37.596;2022-07-23T00:32:58;0.00;;;0.00;;
51080;SDS011;37130;55.670;37.596;2022-07-23T00:35:29;0.00;;;0.00;;
51080;SDS011;37130;55.670;37.596;2022-07-23T00:37:58;0.00;;;0.00;;
51080;SDS011;37130;55.670;37.596;2022-07-23T00:40:27;0.00;;;0.00;;
51080;SDS011;37130;55.670;37.596;2022-07-23T00:42:56;0.00;;;0.00;;
51080;SDS011;37130;55.670;37.596;2022-07-23T00:45:23;0.00;;;0.00;;
51080;SDS011;37130;55.670;37.596;2022-07-23T00:47:51;0.00;;;0.00;;
51080;SDS011;37130;55.670;37.596;2022-07-23T00:50:19;0.00;;;0.00;;
51080;SDS011;37130;55.670;37.596;2022-07-23T00:52:47;0.00;;;0.00;;
51080;SDS011;37130;55.670;37.596;2022-07-23T00:55:15;0.00;;;0.00;;
51080;SDS011;37130;55.670;37.596;2022-07-23T00:57:43;0.00;;;0.00;;
51080;SDS011;37130;55.670;37.596;2022-07-23T01:00:11;0.00;;;0.00;;
51080;SDS011;37130;55.670;37.596;2022-07-23T01:02:40;0.00;;;0.00;;
51080;SDS011;37130;55.670;37.596;2022-07-23T01:05:09;0.00;;;0.00;;
51080;SDS011;37130;55.670;37.596;2022-07-23T01:07:37;0.00;;;0.00;;
51080;SDS011;37130;55.670;37.596;2022-07-23T01:10:05;0.00;;;0.00;;
51080;SDS011;37130;55.670;37.596;2022-07-23T01:12:54;0.00;;;0.00;;
51080;SDS011;37130;55.670;37.596;2022-07-23T01:15:21;0.00;;;0.00;;
51080;SDS011;37130;55.670;37.596;2022-07-23T01:17:49;0.00;;;0.00;;
51080;SDS011;37130;55.670;37.596;2022-07-23T01:20:17;0.00;;;0.00;;
51080;SDS011;37130;55.670;37.596;2022-07-23T01:22:45;0.00;;;0.00;;
51080;SDS011;37130;55.670;37.596;2022-07-23T01:25:13;0.00;;;0.00;;
51080;SDS011;37130;55.670;37.596;2022-07-23T01:27:48;0.00;;;0.00;;
51080;SDS011;37130;55.670;37.596;2022-07-23T01:30:16;0.00;;;0.00;;
51080;SDS011;37130;55.670;37.596;2022-07-23T01:32:43;0.00;;;0.00;;
51080;SDS011;37130;55.670;37.596;2022-07-23T01:35:11;0.00;;;0.00;;
51080;SDS011;37130;55.670;37.596;2022-07-23T01:37:38;0.00;;;0.00;;
51080;SDS011;37130;55.670;37.596;2022-07-23T01:40:06;0.00;;;0.00;;
51080;SDS011;37130;55.670;37.596;2022-07-23T01:42:36;0.00;;;0.00;;
51080;SDS011;37130;55.670;37.596;2022-07-23T01:45:06;0.00;;;0.00;;
51080;SDS011;37130;55.670;37.596;2022-07-23T01:47:36;0.00;;;0.00;;
51080;SDS011;37130;55.670;37.596;2022-07-23T01:50:04;0.00;;;0.00;;
51080;SDS011;37130;55.670;37.596;2022-07-23T01:52:44;0.00;;;0.00;;
51080;SDS011;37130;55.670;37.596;2022-07-23T01:55:12;0.00;;;0.00;;
51080;SDS011;37130;55.670;37.596;2022-07-23T01:57:46;0.00;;;0.00;;
51080;SDS011;37130;55.670;37.596;2022-07-23T02:00:18;0.00;;;0.00;;
51080;SDS011;37130;55.670;37.596;2022-07-23T02:02:48;0.00;;;0.00;;
51080;SDS011;37130;55.670;37.596;2022-07-23T02:05:16;0.00;;;0.00;;
51080;SDS011;37130;55.670;37.596;2022-07-23T02:07:45;0.00;;;0.00;;
51080;SDS011;37130;55.670;37.596;2022-07-23T02:10:12;0.00;;;0.00;;
51080;SDS011;37130;55.670;37.596;2022-07-23T02:12:40;0.00;;;0.00;;
51080;SDS011;37130;55.670;37.596;2022-07-23T02:15:29;0.00;;;0.00;;
51080;SDS011;37130;55.670;37.596;2022-07-23T02:17:58;0.00;;;0.00;;
51080;SDS011;37130;55.670;37.596;2022-07-23T02:20:25;0.00;;;0.00;;
51080;SDS011;37130;55.670;37.596;2022-07-23T02:22:53;0.00;;;0.00;;
51080;SDS011;37130;55.670;37.596;2022-07-23T02:25:21;0.00;;;0.00;;
51080;SDS011;37130;55.670;37.596;2022-07-23T02:27:53;0.00;;;0.00;;
51080;SDS011;37130;55.670;37.596;2022-07-23T02:30:21;0.00;;;0.00;;
51080;SDS011;37130;55.670;37.596;2022-07-23T02:32:49;0.00;;;0.00;;
51080;SDS011;37130;55.670;37.596;2022-07-23T02:35:16;0.00;;;0.00;;
51080;SDS011;37130;55.670;37.596;2022-07-23T02:37:44;0.00;;;0.00;;
51080;SDS011;37130;55.670;37.596;2022-07-23T02:40:11;0.00;;;0.00;;
51080;SDS011;37130;55.670;37.596;2022-07-23T02:42:41;0.00;;;0.00;;
51080;SDS011;37130;55.670;37.596;2022-07-23T02:45:09;0.00;;;0.00;;
51080;SDS011;37130;55.670;37.596;2022-07-23T02:47:39;0.00;;;0.00;;
51080;SDS011;37130;55.670;37.596;2022-07-23T02:50:07;0.00;;;0.00;;
51080;SDS011;37130;55.670;37.596;2022-07-23T02:52:35;0.00;;;0.00;;
51080;SDS011;37130;55.670;37.596;2022-07-23T02:55:03;0.00;;;0.00;;
51080;SDS011;37130;55.670;37.596;2022-07-23T02:57:31;0.00;;;0.00;;
51080;SDS011;37130;55.670;37.596;2022-07-23T02:59:58;0.00;;;0.00;;
51080;SDS011;37130;55.670;37.596;2022-07-23T03:02:29;0.00;;;0.00;;
51080;SDS011;37130;55.670;37.596;2022-07-23T03:04:57;0.00;;;0.00;;
51080;SDS011;37130;55.670;37.596;2022-07-23T03:07:24;0.00;;;0.00;;
51080;SDS011;37130;55.670;37.596;2022-07-23T03:09:52;0.10;;;0.10;;
51080;SDS011;37130;55.670;37.596;2022-07-23T03:12:22;0.10;;;0.10;;
51080;SDS011;37130;55.670;37.596;2022-07-23T03:14:51;0.10;;;0.10;;
51080;SDS011;37130;55.670;37.596;2022-07-23T03:17:19;0.20;;;0.20;;
51080;SDS011;37130;55.670;37.596;2022-07-23T03:19:46;0.20;;;0.20;;
51080;SDS011;37130;55.670;37.596;2022-07-23T03:22:14;0.20;;;0.20;;
51080;SDS011;37130;55.670;37.596;2022-07-23T03:24:42;0.30;;;0.30;;
51080;SDS011;37130;55.670;37.596;2022-07-23T03:27:30;0.30;;;0.30;;
51080;SDS011;37130;55.670;37.596;2022-07-23T03:29:59;0.40;;;0.40;;
51080;SDS011;37130;55.670;37.596;2022-07-23T03:32:29;0.40;;;0.40;;
51080;SDS011;37130;55.670;37.596;2022-07-23T03:34:58;0.50;;;0.50;;
51080;SDS011;37130;55.670;37.596;2022-07-23T03:37:29;0.63;;;0.63;;
51080;SDS011;37130;55.670;37.596;2022-07-23T03:39:58;0.60;;;0.60;;
51080;SDS011;37130;55.670;37.596;2022-07-23T03:42:25;0.73;;;0.73;;
51080;SDS011;37130;55.670;37.596;2022-07-23T03:44:54;0.70;;;0.70;;
51080;SDS011;37130;55.670;37.596;2022-07-23T03:47:22;0.60;;;0.60;;
51080;SDS011;37130;55.670;37.596;2022-07-23T03:49:50;0.80;;;0.80;;
51080;SDS011;37130;55.670;37.596;2022-07-23T03:52:18;0.90;;;0.90;;
51080;SDS011;37130;55.670;37.596;2022-07-23T03:54:46;1.05;;;1.05;;
51080;SDS011;37130;55.670;37.596;2022-07-23T03:57:13;1.10;;;1.10;;
51080;SDS011;37130;55.670;37.596;2022-07-23T03:59:41;1.30;;;1.30;;
51080;SDS011;37130;55.670;37.596;2022-07-23T04:02:08;1.40;;;1.40;;
51080;SDS011;37130;55.670;37.596;2022-07-23T04:04:36;1.42;;;1.42;;
51080;SDS011;37130;55.670;37.596;2022-07-23T04:07:04;1.60;;;1.60;;
51080;SDS011;37130;55.670;37.596;2022-07-23T04:09:33;1.42;;;1.42;;
51080;SDS011;37130;55.670;37.596;2022-07-23T04:12:01;1.70;;;1.70;;
51080;SDS011;37130;55.670;37.596;2022-07-23T04:14:29;1.80;;;1.80;;
51080;SDS011;37130;55.670;37.596;2022-07-23T04:16:56;1.90;;;1.90;;
51080;SDS011;37130;55.670;37.596;2022-07-23T04:19:25;1.73;;;1.73;;
51080;SDS011;37130;55.670;37.596;2022-07-23T04:22:00;1.95;;;1.95;;
51080;SDS011;37130;55.670;37.596;2022-07-23T04:24:30;2.03;;;2.03;;
51080;SDS011;37130;55.670;37.596;2022-07-23T04:26:57;2.50;;;2.40;;
51080;SDS011;37130;55.670;37.596;2022-07-23T04:29:25;2.70;;;2.60;;
51080;SDS011;37130;55.670;37.596;2022-07-23T04:31:53;2.90;;;2.80;;
51080;SDS011;37130;55.670;37.596;2022-07-23T04:34:21;2.90;;;2.80;;
51080;SDS011;37130;55.670;37.596;2022-07-23T04:36:49;2.80;;;2.70;;
51080;SDS011;37130;55.670;37.596;2022-07-23T04:39:17;2.83;;;2.72;;
51080;SDS011;37130;55.670;37.596;2022-07-23T04:41:45;2.88;;;2.78;;
51080;SDS011;37130;55.670;37.596;2022-07-23T04:44:14;2.97;;;2.88;;
51080;SDS011;37130;55.670;37.596;2022-07-23T04:46:42;3.08;;;2.97;;
51080;SDS011;37130;55.670;37.596;2022-07-23T04:49:10;3.17;;;3.08;;
51080;SDS011;37130;55.670;37.596;2022-07-23T04:51:38;2.90;;;2.80;;
51080;SDS011;37130;55.670;37.596;2022-07-23T04:54:06;2.90;;;2.80;;
51080;SDS011;37130;55.670;37.596;2022-07-23T04:56:34;3.35;;;3.25;;
51080;SDS011;37130;55.670;37.596;2022-07-23T04:59:02;3.70;;;3.60;;
51080;SDS011;37130;55.670;37.596;2022-07-23T05:01:30;3.78;;;3.67;;
51080;SDS011;37130;55.670;37.596;2022-07-23T05:03:58;4.30;;;4.20;;
51080;SDS011;37130;55.670;37.596;2022-07-23T05:06:30;4.82;;;4.63;;
51080;SDS011;37130;55.670;37.596;2022-07-23T05:08:58;5.15;;;4.95;;
51080;SDS011;37130;55.670;37.596;2022-07-23T05:11:26;5.13;;;4.93;;
51080;SDS011;37130;55.670;37.596;2022-07-23T05:13:54;5.30;;;5.10;;
51080;SDS011;37130;55.670;37.596;2022-07-23T05:16:23;5.30;;;5.10;;
51080;SDS011;37130;55.670;37.596;2022-07-23T05:18:53;5.25;;;5.05;;
51080;SDS011;37130;55.670;37.596;2022-07-23T05:21:21;5.22;;;5.03;;
51080;SDS011;37130;55.670;37.596;2022-07-23T05:23:48;5.55;;;5.35;;
51080;SDS011;37130;55.670;37.596;2022-07-23T05:26:20;5.80;;;5.60;;
51080;SDS011;37130;55.670;37.596;2022-07-23T05:28:49;6.40;;;6.20;;
51080;SDS011;37130;55.670;37.596;2022-07-23T05:31:19;7.10;;;6.80;;
51080;SDS011;37130;55.670;37.596;2022-07-23T05:33:47;6.97;;;6.72;;
51080;SDS011;37130;55.670;37.596;2022-07-23T05:36:14;7.53;;;7.22;;
51080;SDS011;37130;55.670;37.596;2022-07-23T05:38:49;7.50;;;7.20;;
51080;SDS011;37130;55.670;37.596;2022-07-23T05:41:17;8.40;;;8.10;;
51080;SDS011;37130;55.670;37.596;2022-07-23T05:43:44;8.50;;;8.20;;
51080;SDS011;37130;55.670;37.596;2022-07-23T05:46:13;8.57;;;8.27;;
51080;SDS011;37130;55.670;37.596;2022-07-23T05:48:45;9.65;;;9.25;;
51080;SDS011;37130;55.670;37.596;2022-07-23T05:51:37;9.63;;;9.23;;
51080;SDS011;37130;55.670;37.596;2022-07-23T05:54:05;10.50;;;10.10;;
51080;SDS011;37130;55.670;37.596;2022-07-23T05:56:36;11.10;;;10.70;;
51080;SDS011;37130;55.670;37.596;2022-07-23T05:59:04;10.65;;;10.25;;
51080;SDS011;37130;55.670;37.596;2022-07-23T06:01:32;10.93;;;10.52;;
51080;SDS011;37130;55.670;37.596;2022-07-23T06:04:07;11.35;;;10.95;;
51080;SDS011;37130;55.670;37.596;2022-07-23T06:06:38;11.25;;;10.85;;
51080;SDS011;37130;55.670;37.596;2022-07-23T06:09:07;12.15;;;11.65;;
51080;SDS011;37130;55.670;37.596;2022-07-23T06:11:35;12.68;;;12.18;;
51080;SDS011;37130;55.670;37.596;2022-07-23T06:14:02;11.57;;;11.15;;
51080;SDS011;37130;55.670;37.596;2022-07-23T06:16:50;10.93;;;10.52;;
51080;SDS011;37130;55.670;37.596;2022-07-23T06:19:18;10.88;;;10.48;;
51080;SDS011;37130;55.670;37.596;2022-07-23T06:21:46;10.70;;;10.30;;
51080;SDS011;37130;55.670;37.596;2022-07-23T06:24:16;11.70;;;11.27;;
51080;SDS011;37130;55.670;37.596;2022-07-23T06:26:44;11.55;;;11.13;;
51080;SDS011;37130;55.670;37.596;2022-07-23T06:29:12;13.15;;;12.65;;
51080;SDS011;37130;55.670;37.596;2022-07-23T06:31:41;13.13;;;12.63;;
51080;SDS011;37130;55.670;37.596;2022-07-23T06:34:09;12.88;;;12.38;;
51080;SDS011;37130;55.670;37.596;2022-07-23T06:36:36;13.20;;;12.70;;
51080;SDS011;37130;55.670;37.596;2022-07-23T06:39:05;13.38;;;12.88;;
51080;SDS011;37130;55.670;37.596;2022-07-23T06:41:35;13.88;;;13.35;;
51080;SDS011;37130;55.670;37.596;2022-07-23T06:44:02;14.50;;;13.90;;
51080;SDS011;37130;55.670;37.596;2022-07-23T06:46:34;15.43;;;14.82;;
51080;SDS011;37130;55.670;37.596;2022-07-23T06:49:01;16.65;;;15.95;;
51080;SDS011;37130;55.670;37.596;2022-07-23T06:51:32;16.38;;;15.75;;
51080;SDS011;37130;55.670;37.596;2022-07-23T06:54:00;17.75;;;17.05;;
51080;SDS011;37130;55.670;37.596;2022-07-23T06:56:28;18.13;;;17.42;;
51080;SDS011;37130;55.670;37.596;2022-07-23T06:58:56;18.95;;;18.15;;
51080;SDS011;37130;55.670;37.596;2022-07-23T07:01:26;19.17;;;18.38;;
51080;SDS011;37130;55.670;37.596;2022-07-23T07:03:53;20.48;;;19.67;;
51080;SDS011;37130;55.670;37.596;2022-07-23T07:06:21;19.17;;;18.38;;
51080;SDS011;37130;55.670;37.596;2022-07-23T07:08:51;16.27;;;15.65;;
51080;SDS011;37130;55.670;37.596;2022-07-23T07:11:18;14.98;;;14.38;;
51080;SDS011;37130;55.670;37.596;2022-07-23T07:13:45;13.52;;;13.02;;
51080;SDS011;37130;55.670;37.596;2022-07-23T07:16:13;10.02;;;9.63;;
51080;SDS011;37130;55.670;37.596;2022-07-23T07:18:41;9.40;;;9.00;;
51080;SDS011;37130;55.670;37.596;2022-07-23T07:21:08;8.30;;;8.00;;
51080;SDS011;37130;55.670;37.596;2022-07-23T07:23:37;9.30;;;8.93;;
51080;SDS011;37130;55.670;37.596;2022-07-23T07:26:05;8.70;;;8.40;;
51080;SDS011;37130;55.670;37.596;2022-07-23T07:28:32;8.98;;;8.68;;
51080;SDS011;37130;55.670;37.596;2022-07-23T07:31:00;8.15;;;7.85;;
51080;SDS011;37130;55.670;37.596;2022-07-23T07:33:29;8.32;;;8.02;;
51080;SDS011;37130;55.670;37.596;2022-07-23T07:35:56;9.60;;;9.20;;
51080;SDS011;37130;55.670;37.596;2022-07-23T07:38:25;9.38;;;8.98;;
51080;SDS011;37130;55.670;37.596;2022-07-23T07:40:53;6.30;;;6.10;;
51080;SDS011;37130;55.670;37.596;2022-07-23T07:43:21;5.45;;;5.25;;
51080;SDS011;37130;55.670;37.596;2022-07-23T07:45:49;5.13;;;4.93;;
51080;SDS011;37130;55.670;37.596;2022-07-23T07:48:17;5.47;;;5.28;;
51080;SDS011;37130;55.670;37.596;2022-07-23T07:50:45;6.10;;;5.90;;
51080;SDS011;37130;55.670;37.596;2022-07-23T07:53:15;5.80;;;5.60;;
51080;SDS011;37130;55.670;37.596;2022-07-23T07:55:43;5.65;;;5.45;;
51080;SDS011;37130;55.670;37.596;2022-07-23T07:58:17;7.28;;;6.97;;
51080;SDS011;37130;55.670;37.596;2022-07-23T08:00:46;6.40;;;6.20;;
51080;SDS011;37130;55.670;37.596;2022-07-23T08:03:13;4.05;;;3.95;;
51080;SDS011;37130;55.670;37.596;2022-07-23T08:05:41;2.58;;;2.47;;
51080;SDS011;37130;55.670;37.596;2022-07-23T08:08:09;1.80;;;1.80;;
51080;SDS011;37130;55.670;37.596;2022-07-23T08:10:41;1.35;;;1.35;;
51080;SDS011;37130;55.670;37.596;2022-07-23T08:13:14;1.65;;;1.65;;
51080;SDS011;37130;55.670;37.596;2022-07-23T08:15:43;1.70;;;1.70;;
51080;SDS011;37130;55.670;37.596;2022-07-23T08:18:12;1.70;;;1.70;;
51080;SDS011;37130;55.670;37.596;2022-07-23T08:20:40;2.38;;;2.28;;
51080;SDS011;37130;55.670;37.596;2022-07-23T08:23:08;1.70;;;1.70;;
51080;SDS011;37130;55.670;37.596;2022-07-23T08:25:37;1.42;;;1.42;;
51080;SDS011;37130;55.670;37.596;2022-07-23T08:28:06;1.00;;;1.00;;
51080;SDS011;37130;55.670;37.596;2022-07-23T08:30:37;0.90;;;0.90;;
51080;SDS011;37130;55.670;37.596;2022-07-23T08:35:57;0.47;;;0.47;;
51080;SDS011;37130;55.670;37.596;2022-07-23T08:38:25;0.30;;;0.30;;
51080;SDS011;37130;55.670;37.596;2022-07-23T08:40:54;0.20;;;0.20;;
51080;SDS011;37130;55.670;37.596;2022-07-23T08:43:26;0.20;;;0.20;;
51080;SDS011;37130;55.670;37.596;2022-07-23T08:45:55;0.20;;;0.20;;
51080;SDS011;37130;55.670;37.596;2022-07-23T08:48:28;0.20;;;0.20;;
51080;SDS011;37130;55.670;37.596;2022-07-23T08:50:59;0.20;;;0.20;;
51080;SDS011;37130;55.670;37.596;2022-07-23T08:53:29;0.20;;;0.20;;
51080;SDS011;37130;55.670;37.596;2022-07-23T08:55:58;0.17;;;0.17;;
51080;SDS011;37130;55.670;37.596;2022-07-23T08:58:29;0.10;;;0.10;;
51080;SDS011;37130;55.670;37.596;2022-07-23T09:00:58;0.20;;;0.20;;
51080;SDS011;37130;55.670;37.596;2022-07-23T09:03:34;0.17;;;0.17;;
51080;SDS011;37130;55.670;37.596;2022-07-23T09:06:03;0.10;;;0.10;;
51080;SDS011;37130;55.670;37.596;2022-07-23T09:08:38;0.10;;;0.10;;
51080;SDS011;37130;55.670;37.596;2022-07-23T09:11:07;0.10;;;0.10;;
51080;SDS011;37130;55.670;37.596;2022-07-23T09:16:13;0.10;;;0.10;;
51080;SDS011;37130;55.670;37.596;2022-07-23T09:21:19;0.10;;;0.10;;
51080;SDS011;37130;55.670;37.596;2022-07-23T09:23:58;0.10;;;0.10;;
51080;SDS011;37130;55.670;37.596;2022-07-23T09:26:30;0.10;;;0.10;;
51080;SDS011;37130;55.670;37.596;2022-07-23T09:29:08;0.10;;;0.10;;
51080;SDS011;37130;55.670;37.596;2022-07-23T09:31:49;0.10;;;0.10;;
51080;SDS011;37130;55.670;37.596;2022-07-23T09:34:19;0.10;;;0.10;;
51080;SDS011;37130;55.670;37.596;2022-07-23T09:36:52;0.00;;;0.00;;
51080;SDS011;37130;55.670;37.596;2022-07-23T09:39:27;0.10;;;0.10;;
51080;SDS011;37130;55.670;37.596;2022-07-23T09:41:58;0.10;;;0.10;;
51080;SDS011;37130;55.670;37.596;2022-07-23T09:44:43;0.10;;;0.10;;
51080;SDS011;37130;55.670;37.596;2022-07-23T09:47:12;0.10;;;0.10;;
51080;SDS011;37130;55.670;37.596;2022-07-23T09:49:40;0.10;;;0.10;;
51080;SDS011;37130;55.670;37.596;2022-07-23T09:52:29;0.10;;;0.10;;
51080;SDS011;37130;55.670;37.596;2022-07-23T09:55:09;0.10;;;0.10;;
51080;SDS011;37130;55.670;37.596;2022-07-23T09:57:37;0.10;;;0.10;;
51080;SDS011;37130;55.670;37.596;2022-07-23T10:00:08;0.10;;;0.10;;
51080;SDS011;37130;55.670;37.596;2022-07-23T10:02:37;0.10;;;0.10;;
51080;SDS011;37130;55.670;37.596;2022-07-23T10:05:25;0.10;;;0.10;;
51080;SDS011;37130;55.670;37.596;2022-07-23T10:07:59;0.10;;;0.10;;
51080;SDS011;37130;55.670;37.596;2022-07-23T10:10:47;0.00;;;0.00;;
51080;SDS011;37130;55.670;37.596;2022-07-23T10:13:35;0.10;;;0.10;;
51080;SDS011;37130;55.670;37.596;2022-07-23T10:16:34;0.00;;;0.00;;
51080;SDS011;37130;55.670;37.596;2022-07-23T10:19:01;0.00;;;0.00;;
51080;SDS011;37130;55.670;37.596;2022-07-23T10:21:34;0.00;;;0.00;;
51080;SDS011;37130;55.670;37.596;2022-07-23T10:24:22;0.00;;;0.00;;
51080;SDS011;37130;55.670;37.596;2022-07-23T10:27:09;0.00;;;0.00;;
51080;SDS011;37130;55.670;37.596;2022-07-23T10:29:53;0.00;;;0.00;;
51080;SDS011;37130;55.670;37.596;2022-07-23T10:38:02;0.03;;;0.03;;
51080;SDS011;37130;55.670;37.596;2022-07-23T10:43:27;0.10;;;0.10;;
51080;SDS011;37130;55.670;37.596;2022-07-23T10:46:21;0.10;;;0.10;;
51080;SDS011;37130;55.670;37.596;2022-07-23T10:49:23;0.10;;;0.10;;
51080;SDS011;37130;55.670;37.596;2022-07-23T10:54:41;0.10;;;0.10;;
51080;SDS011;37130;55.670;37.596;2022-07-23T10:57:13;0.05;;;0.05;;
51080;SDS011;37130;55.670;37.596;2022-07-23T11:02:45;0.00;;;0.00;;
51080;SDS011;37130;55.670;37.596;2022-07-23T11:05:17;0.05;;;0.05;;
51080;SDS011;37130;55.670;37.596;2022-07-23T11:10:38;0.08;;;0.08;;
51080;SDS011;37130;55.670;37.596;2022-07-23T11:31:58;0.00;;;0.00;;
51080;SDS011;37130;55.670;37.596;2022-07-23T11:37:01;0.00;;;0.00;;
51080;SDS011;37130;55.670;37.596;2022-07-23T11:39:31;0.10;;;0.10;;
51080;SDS011;37130;55.670;37.596;2022-07-23T11:42:01;0.00;;;0.00;;
51080;SDS011;37130;55.670;37.596;2022-07-23T11:44:33;0.10;;;0.10;;
51080;SDS011;37130;55.670;37.596;2022-07-23T11:47:06;0.10;;;0.10;;
51080;SDS011;37130;55.670;37.596;2022-07-23T11:49:35;0.00;;;0.00;;
51080;SDS011;37130;55.670;37.596;2022-07-23T11:52:10;0.00;;;0.00;;
51080;SDS011;37130;55.670;37.596;2022-07-23T11:57:21;0.00;;;0.00;;
51080;SDS011;37130;55.670;37.596;2022-07-23T11:59:56;0.00;;;0.00;;
51080;SDS011;37130;55.670;37.596;2022-07-23T12:02:38;0.00;;;0.00;;
51080;SDS011;37130;55.670;37.596;2022-07-23T12:05:12;0.00;;;0.00;;
51080;SDS011;37130;55.670;37.596;2022-07-23T12:07:41;0.00;;;0.00;;
51080;SDS011;37130;55.670;37.596;2022-07-23T12:10:16;0.00;;;0.00;;
51080;SDS011;37130;55.670;37.596;2022-07-23T12:15:13;0.00;;;0.00;;
51080;SDS011;37130;55.670;37.596;2022-07-23T12:17:42;0.00;;;0.00;;
51080;SDS011;37130;55.670;37.596;2022-07-23T12:20:36;0.00;;;0.00;;
51080;SDS011;37130;55.670;37.596;2022-07-23T12:23:06;0.00;;;0.00;;
51080;SDS011;37130;55.670;37.596;2022-07-23T12:25:35;0.00;;;0.00;;
51080;SDS011;37130;55.670;37.596;2022-07-23T12:28:09;0.00;;;0.00;;
51080;SDS011;37130;55.670;37.596;2022-07-23T12:30:43;0.00;;;0.00;;
51080;SDS011;37130;55.670;37.596;2022-07-23T12:33:12;0.00;;;0.00;;
51080;SDS011;37130;55.670;37.596;2022-07-23T12:35:42;0.00;;;0.00;;
51080;SDS011;37130;55.670;37.596;2022-07-23T12:38:12;0.00;;;0.00;;
51080;SDS011;37130;55.670;37.596;2022-07-23T12:43:17;0.00;;;0.00;;
51080;SDS011;37130;55.670;37.596;2022-07-23T12:45:57;0.00;;;0.00;;
51080;SDS011;37130;55.670;37.596;2022-07-23T12:51:07;0.00;;;0.00;;
51080;SDS011;37130;55.670;37.596;2022-07-23T12:53:47;0.00;;;0.00;;
51080;SDS011;37130;55.670;37.596;2022-07-23T12:56:27;0.00;;;0.00;;
51080;SDS011;37130;55.670;37.596;2022-07-23T12:58:57;0.00;;;0.00;;
51080;SDS011;37130;55.670;37.596;2022-07-23T13:01:35;0.00;;;0.00;;
51080;SDS011;37130;55.670;37.596;2022-07-23T13:04:05;0.00;;;0.00;;
51080;SDS011;37130;55.670;37.596;2022-07-23T13:09:18;0.00;;;0.00;;
51080;SDS011;37130;55.670;37.596;2022-07-23T13:11:51;0.00;;;0.00;;
51080;SDS011;37130;55.670;37.596;2022-07-23T13:14:23;0.00;;;0.00;;
51080;SDS011;37130;55.670;37.596;2022-07-23T13:16:52;0.00;;;0.00;;
51080;SDS011;37130;55.670;37.596;2022-07-23T13:19:23;0.00;;;0.00;;
51080;SDS011;37130;55.670;37.596;2022-07-23T13:21:52;0.10;;;0.10;;
51080;SDS011;37130;55.670;37.596;2022-07-23T13:24:19;0.00;;;0.00;;
51080;SDS011;37130;55.670;37.596;2022-07-23T13:26:47;0.05;;;0.05;;
51080;SDS011;37130;55.670;37.596;2022-07-23T13:29:17;0.00;;;0.00;;
51080;SDS011;37130;55.670;37.596;2022-07-23T13:31:45;0.00;;;0.00;;
51080;SDS011;37130;55.670;37.596;2022-07-23T13:34:15;0.00;;;0.00;;
51080;SDS011;37130;55.670;37.596;2022-07-23T13:36:42;0.00;;;0.00;;
51080;SDS011;37130;55.670;37.596;2022-07-23T13:39:10;0.00;;;0.00;;
51080;SDS011;37130;55.670;37.596;2022-07-23T13:41:38;0.00;;;0.00;;
51080;SDS011;37130;55.670;37.596;2022-07-23T13:44:15;0.00;;;0.00;;
51080;SDS011;37130;55.670;37.596;2022-07-23T13:46:43;0.00;;;0.00;;
51080;SDS011;37130;55.670;37.596;2022-07-23T13:49:10;0.00;;;0.00;;
51080;SDS011;37130;55.670;37.596;2022-07-23T13:51:39;0.00;;;0.00;;
51080;SDS011;37130;55.670;37.596;2022-07-23T13:54:08;0.00;;;0.00;;
51080;SDS011;37130;55.670;37.596;2022-07-23T13:56:35;0.00;;;0.00;;
51080;SDS011;37130;55.670;37.596;2022-07-23T13:59:03;0.00;;;0.00;;
51080;SDS011;37130;55.670;37.596;2022-07-23T14:01:33;0.00;;;0.00;;
51080;SDS011;37130;55.670;37.596;2022-07-23T14:04:21;0.00;;;0.00;;
51080;SDS011;37130;55.670;37.596;2022-07-23T14:06:49;0.00;;;0.00;;
51080;SDS011;37130;55.670;37.596;2022-07-23T14:09:20;0.00;;;0.00;;
51080;SDS011;37130;55.670;37.596;2022-07-23T14:11:48;0.00;;;0.00;;
51080;SDS011;37130;55.670;37.596;2022-07-23T14:14:18;0.00;;;0.00;;
51080;SDS011;37130;55.670;37.596;2022-07-23T14:16:46;0.00;;;0.00;;
51080;SDS011;37130;55.670;37.596;2022-07-23T14:19:13;0.00;;;0.00;;
51080;SDS011;37130;55.670;37.596;2022-07-23T14:21:41;0.00;;;0.00;;
51080;SDS011;37130;55.670;37.596;2022-07-23T14:24:08;0.00;;;0.00;;
51080;SDS011;37130;55.670;37.596;2022-07-23T14:26:36;0.10;;;0.10;;
51080;SDS011;37130;55.670;37.596;2022-07-23T14:29:04;0.00;;;0.00;;
51080;SDS011;37130;55.670;37.596;2022-07-23T14:31:34;0.00;;;0.00;;
51080;SDS011;37130;55.670;37.596;2022-07-23T14:34:03;0.00;;;0.00;;
51080;SDS011;37130;55.670;37.596;2022-07-23T14:36:30;0.00;;;0.00;;
51080;SDS011;37130;55.670;37.596;2022-07-23T14:38:58;0.00;;;0.00;;
51080;SDS011;37130;55.670;37.596;2022-07-23T14:41:26;0.00;;;0.00;;
51080;SDS011;37130;55.670;37.596;2022-07-23T14:43:56;0.00;;;0.00;;
51080;SDS011;37130;55.670;37.596;2022-07-23T14:46:23;0.00;;;0.00;;
51080;SDS011;37130;55.670;37.596;2022-07-23T14:48:51;0.00;;;0.00;;
51080;SDS011;37130;55.670;37.596;2022-07-23T14:51:18;0.00;;;0.00;;
51080;SDS011;37130;55.670;37.596;2022-07-23T14:53:47;0.00;;;0.00;;
51080;SDS011;37130;55.670;37.596;2022-07-23T14:56:14;0.00;;;0.00;;
51080;SDS011;37130;55.670;37.596;2022-07-23T14:58:42;0.00;;;0.00;;
51080;SDS011;37130;55.670;37.596;2022-07-23T15:01:10;0.00;;;0.00;;
51080;SDS011;37130;55.670;37.596;2022-07-23T15:03:39;0.00;;;0.00;;
51080;SDS011;37130;55.670;37.596;2022-07-23T15:06:09;0.00;;;0.00;;
51080;SDS011;37130;55.670;37.596;2022-07-23T15:08:38;0.00;;;0.00;;
51080;SDS011;37130;55.670;37.596;2022-07-23T15:11:06;0.00;;;0.00;;
51080;SDS011;37130;55.670;37.596;2022-07-23T15:13:36;0.00;;;0.00;;
51080;SDS011;37130;55.670;37.596;2022-07-23T15:16:05;0.00;;;0.00;;
51080;SDS011;37130;55.670;37.596;2022-07-23T15:18:36;0.00;;;0.00;;
51080;SDS011;37130;55.670;37.596;2022-07-23T15:21:03;0.00;;;0.00;;
51080;SDS011;37130;55.670;37.596;2022-07-23T15:23:33;0.00;;;0.00;;
51080;SDS011;37130;55.670;37.596;2022-07-23T15:26:01;0.00;;;0.00;;
51080;SDS011;37130;55.670;37.596;2022-07-23T15:28:30;0.00;;;0.00;;
51080;SDS011;37130;55.670;37.596;2022-07-23T15:30:58;0.00;;;0.00;;
51080;SDS011;37130;55.670;37.596;2022-07-23T15:33:25;0.00;;;0.00;;
51080;SDS011;37130;55.670;37.596;2022-07-23T15:35:53;0.05;;;0.00;;
51080;SDS011;37130;55.670;37.596;2022-07-23T15:38:23;0.00;;;0.00;;
51080;SDS011;37130;55.670;37.596;2022-07-23T15:40:53;0.05;;;0.00;;
51080;SDS011;37130;55.670;37.596;2022-07-23T15:43:22;0.00;;;0.00;;
51080;SDS011;37130;55.670;37.596;2022-07-23T15:45:51;0.00;;;0.00;;
51080;SDS011;37130;55.670;37.596;2022-07-23T15:48:20;0.00;;;0.00;;